createdAt,value
2019-04-30T00:02:00.221Z,37.03
2019-04-30T00:04:37.289Z,34.78
2019-04-30T00:07:05.641Z,35.08
2019-04-30T00:09:36.189Z,38.28
2019-04-30T00:12:05.614Z,34.43
2019-04-30T00:14:41.043Z,40.17
2019-04-30T00:17:06.473Z,37.53
2019-04-30T00:19:36.964Z,36.55
2019-04-30T00:22:05.870Z,39.33
2019-04-30T00:24:35.489Z,37.08
2019-04-30T00:27:05.151Z,34.45
2019-04-30T00:29:35.585Z,41.37
2019-04-30T00:32:07.815Z,38.13
2019-04-30T00:34:38.176Z,37.23
2019-04-30T00:37:07.387Z,35.50
2019-04-30T00:39:36.014Z,37.73
2019-04-30T00:42:05.009Z,37.78
2019-04-30T00:44:35.549Z,34.95
2019-04-30T00:47:08.251Z,37.95
2019-04-30T00:49:37.251Z,32.50
2019-04-30T00:52:06.117Z,34.15
2019-04-30T00:54:35.212Z,34.55
2019-04-30T00:57:07.547Z,34.80
2019-04-30T00:59:35.089Z,37.50
2019-04-30T01:02:06.134Z,35.43
2019-04-30T01:04:45.437Z,36.08
2019-04-30T01:07:15.597Z,35.63
2019-04-30T01:09:49.562Z,32.80
2019-04-30T01:12:17.422Z,33.67
2019-04-30T01:14:45.653Z,32.85
2019-04-30T01:17:14.397Z,36.20
2019-04-30T01:19:45.994Z,35.00
2019-04-30T01:22:13.794Z,33.55
2019-04-30T01:24:42.669Z,35.03
2019-04-30T01:27:11.639Z,40.43
2019-04-30T01:29:44.044Z,34.50
2019-04-30T01:32:17.676Z,34.55
2019-04-30T01:34:44.334Z,36.42
2019-04-30T01:37:12.148Z,36.03
2019-04-30T01:39:40.916Z,35.23
2019-04-30T01:42:11.418Z,38.75
2019-04-30T01:44:43.560Z,31.02
2019-04-30T01:47:10.740Z,36.33
2019-04-30T01:49:44.211Z,34.92
2019-04-30T01:52:10.042Z,33.28
2019-04-30T01:54:39.202Z,31.12
2019-04-30T01:57:21.956Z,34.25
2019-04-30T02:00:09.767Z,31.37
2019-04-30T02:02:40.234Z,31.33
2019-04-30T02:05:09.027Z,32.58
2019-04-30T02:07:38.808Z,32.13
2019-04-30T02:10:08.778Z,34.78
2019-04-30T02:12:39.299Z,35.45
2019-04-30T02:15:09.469Z,34.65
2019-04-30T02:17:38.931Z,30.30
2019-04-30T02:20:08.923Z,37.90
2019-04-30T02:22:38.955Z,32.30
2019-04-30T02:25:09.704Z,30.77
2019-04-30T02:27:39.024Z,33.88
2019-04-30T02:30:11.271Z,32.50
2019-04-30T02:32:39.622Z,32.15
2019-04-30T02:35:26.405Z,32.00
2019-04-30T02:38:11.244Z,33.75
2019-04-30T02:40:42.591Z,30.15
2019-04-30T02:43:11.802Z,30.92
2019-04-30T02:45:42.242Z,30.97
2019-04-30T02:48:12.011Z,36.58
2019-04-30T02:50:42.706Z,33.02
2019-04-30T02:53:50.550Z,33.25
2019-04-30T02:56:20.484Z,30.62
2019-04-30T02:58:50.918Z,31.60
2019-04-30T03:01:20.412Z,29.42
2019-04-30T03:03:50.038Z,31.17
2019-04-30T03:06:20.352Z,29.75
2019-04-30T03:08:51.281Z,31.48
2019-04-30T03:11:20.849Z,29.35
2019-04-30T03:13:49.899Z,30.82
2019-04-30T03:16:20.929Z,28.52
2019-04-30T03:18:54.411Z,28.55
2019-04-30T03:21:41.282Z,30.37
2019-04-30T03:24:11.439Z,32.00
2019-04-30T03:26:40.614Z,31.48
2019-04-30T03:29:11.350Z,30.43
2019-04-30T03:31:44.519Z,34.00
2019-04-30T03:34:12.306Z,33.80
2019-04-30T03:36:40.970Z,31.73
2019-04-30T03:39:10.803Z,31.57
2019-04-30T03:41:41.522Z,31.57
2019-04-30T03:44:24.740Z,33.80
2019-04-30T03:46:40.996Z,32.28
2019-04-30T03:49:12.500Z,31.05
2019-04-30T03:51:40.684Z,28.80
2019-04-30T03:54:10.483Z,34.83
2019-04-30T03:56:40.562Z,31.80
2019-04-30T03:59:10.689Z,29.63
2019-04-30T04:01:44.070Z,27.85
2019-04-30T04:04:14.483Z,28.70
2019-04-30T04:06:44.919Z,30.97
2019-04-30T04:09:15.335Z,26.12
2019-04-30T04:11:45.787Z,24.72
2019-04-30T04:14:14.551Z,27.65
2019-04-30T04:16:43.449Z,22.20
2019-04-30T04:19:12.284Z,23.75
2019-04-30T04:21:41.120Z,24.43
2019-04-30T04:24:10.619Z,22.95
2019-04-30T04:26:43.310Z,23.87
2019-04-30T04:29:12.424Z,25.70
2019-04-30T04:31:40.466Z,20.48
2019-04-30T04:34:09.418Z,22.93
2019-04-30T04:36:42.962Z,21.05
2019-04-30T04:39:09.927Z,21.77
2019-04-30T04:41:39.869Z,19.40
2019-04-30T04:44:12.544Z,22.00
2019-04-30T04:46:40.225Z,20.10
2019-04-30T04:49:09.177Z,24.63
2019-04-30T04:51:41.363Z,20.80
2019-04-30T04:54:10.379Z,19.00
2019-04-30T04:56:40.054Z,17.85
2019-04-30T04:59:10.308Z,18.07
2019-04-30T05:01:39.795Z,15.93
2019-04-30T05:04:11.469Z,16.85
2019-04-30T05:06:39.481Z,17.82
2019-04-30T05:09:09.678Z,18.92
2019-04-30T05:11:39.588Z,19.40
2019-04-30T05:14:10.916Z,18.55
2019-04-30T05:16:39.155Z,16.52
2019-04-30T05:19:08.887Z,16.55
2019-04-30T05:21:42.763Z,15.80
2019-04-30T05:24:09.052Z,19.37
2019-04-30T05:26:38.669Z,16.95
2019-04-30T05:29:09.450Z,17.48
2019-04-30T05:31:38.512Z,17.73
2019-04-30T05:34:10.147Z,16.70
2019-04-30T05:36:39.141Z,14.10
2019-04-30T05:39:08.701Z,14.03
2019-04-30T05:41:38.637Z,14.10
2019-04-30T05:44:08.933Z,14.58
2019-04-30T05:46:39.660Z,13.98
2019-04-30T05:49:09.004Z,17.87
2019-04-30T05:51:38.817Z,15.45
2019-04-30T05:54:09.102Z,15.78
2019-04-30T05:56:39.883Z,14.13
2019-04-30T05:59:09.020Z,13.40
2019-04-30T06:01:39.517Z,13.75
2019-04-30T06:04:09.507Z,15.08
2019-04-30T06:06:38.973Z,14.35
2019-04-30T06:09:30.185Z,16.30
2019-04-30T06:11:59.057Z,15.72
2019-04-30T06:14:29.611Z,15.98
2019-04-30T06:17:12.073Z,15.28
2019-04-30T06:19:40.899Z,18.17
2019-04-30T06:22:11.006Z,20.97
2019-04-30T06:24:40.082Z,18.80
2019-04-30T06:27:10.781Z,14.90
2019-04-30T06:29:39.951Z,20.65
2019-04-30T06:32:09.163Z,18.82
2019-04-30T06:34:39.517Z,17.65
2019-04-30T06:37:09.719Z,17.57
2019-04-30T06:39:38.749Z,21.05
2019-04-30T06:42:12.239Z,18.75
2019-04-30T06:44:41.642Z,20.15
2019-04-30T06:47:09.737Z,22.35
2019-04-30T06:49:39.315Z,23.30
2019-04-30T06:52:20.312Z,36.85
2019-04-30T06:54:39.750Z,21.57
2019-04-30T06:57:09.723Z,26.27
2019-04-30T06:59:39.533Z,22.05
2019-04-30T07:02:13.157Z,22.35
2019-04-30T07:04:42.040Z,21.35
2019-04-30T07:07:14.280Z,22.40
2019-04-30T07:09:51.943Z,22.50
2019-04-30T07:12:28.555Z,20.72
2019-04-30T07:14:59.220Z,21.37
2019-04-30T07:17:29.241Z,19.92
2019-04-30T07:19:59.729Z,221.05
2019-04-30T07:22:37.668Z,25.23
2019-04-30T07:25:02.033Z,26.65
2019-04-30T07:27:32.413Z,41.20
2019-04-30T07:30:01.435Z,27.00
2019-04-30T07:32:30.274Z,22.80
2019-04-30T07:34:59.523Z,24.15
2019-04-30T07:37:29.209Z,28.38
2019-04-30T07:39:58.903Z,24.98
2019-04-30T07:42:29.413Z,26.77
2019-04-30T07:45:00.656Z,25.08
2019-04-30T07:47:29.844Z,25.48
2019-04-30T07:50:00.761Z,26.42
2019-04-30T07:52:33.131Z,22.37
2019-04-30T07:55:00.617Z,24.98
2019-04-30T07:57:32.339Z,62.80
2019-04-30T08:00:00.677Z,34.00
2019-04-30T08:02:36.921Z,26.48
2019-04-30T08:05:06.355Z,29.07
2019-04-30T08:10:04.140Z,25.82
2019-04-30T08:12:36.321Z,26.80
2019-04-30T08:15:04.906Z,29.35
2019-04-30T08:17:33.751Z,27.60
2019-04-30T08:20:02.564Z,27.05
2019-04-30T08:22:31.388Z,27.82
2019-04-30T08:25:00.193Z,30.43
2019-04-30T08:27:29.643Z,27.87
2019-04-30T08:29:59.224Z,27.93
2019-04-30T08:32:29.026Z,24.23
2019-04-30T08:35:00.952Z,22.07
2019-04-30T08:37:29.575Z,22.82
2019-04-30T08:40:00.218Z,22.87
2019-04-30T08:42:33.797Z,20.40
2019-04-30T08:44:59.360Z,17.65
2019-04-30T08:47:29.086Z,18.30
2019-04-30T08:49:59.419Z,21.27
2019-04-30T08:52:30.374Z,25.25
2019-04-30T08:55:12.757Z,23.00
2019-04-30T08:57:29.514Z,26.73
2019-04-30T08:59:58.615Z,24.98
2019-04-30T09:02:28.988Z,23.40
2019-04-30T09:05:00.512Z,23.60
2019-04-30T09:07:29.765Z,24.70
2019-04-30T09:10:01.083Z,27.62
2019-04-30T09:12:29.949Z,24.92
2019-04-30T09:14:59.176Z,23.35
2019-04-30T09:17:29.714Z,24.45
2019-04-30T09:19:59.020Z,30.02
2019-04-30T09:22:29.333Z,22.10
2019-04-30T09:24:59.230Z,25.37
2019-04-30T09:27:29.626Z,23.57
2019-04-30T09:29:58.856Z,22.32
2019-04-30T09:32:29.143Z,25.62
2019-04-30T09:34:59.212Z,20.75
2019-04-30T09:37:28.031Z,32.60
2019-04-30T09:40:02.365Z,25.55
2019-04-30T09:42:36.548Z,22.07
2019-04-30T09:45:08.768Z,27.37
2019-04-30T09:47:37.790Z,23.13
2019-04-30T09:50:08.992Z,23.25
2019-04-30T09:52:39.519Z,24.25
2019-04-30T09:55:09.595Z,22.67
2019-04-30T09:57:38.995Z,25.92
2019-04-30T10:00:10.529Z,22.02
2019-04-30T10:02:39.430Z,24.75
2019-04-30T10:05:09.419Z,28.98
2019-04-30T10:07:39.349Z,23.62
2019-04-30T10:10:11.419Z,33.18
2019-04-30T10:12:40.501Z,28.90
2019-04-30T10:15:11.161Z,25.70
2019-04-30T10:17:41.639Z,28.80
2019-04-30T10:20:12.701Z,22.60
2019-04-30T10:22:41.561Z,27.98
2019-04-30T10:25:11.300Z,27.85
2019-04-30T10:27:40.150Z,25.20
2019-04-30T10:30:10.684Z,25.80
2019-04-30T10:32:39.578Z,23.10
2019-04-30T10:35:08.688Z,22.02
2019-04-30T10:37:38.705Z,27.05
2019-04-30T10:40:10.278Z,22.62
2019-04-30T10:42:39.389Z,23.02
2019-04-30T10:45:09.748Z,25.43
2019-04-30T10:47:39.349Z,26.57
2019-04-30T10:50:09.935Z,24.35
2019-04-30T10:52:39.347Z,23.70
2019-04-30T10:55:09.392Z,27.00
2019-04-30T10:57:39.638Z,25.05
2019-04-30T11:00:13.621Z,23.45
2019-04-30T11:02:42.408Z,27.65
2019-04-30T11:05:11.824Z,27.87
2019-04-30T11:07:40.591Z,31.12
2019-04-30T11:10:10.456Z,25.20
2019-04-30T11:12:39.368Z,25.30
2019-04-30T11:15:08.475Z,23.83
2019-04-30T11:17:39.488Z,28.05
2019-04-30T11:20:10.083Z,26.97
2019-04-30T11:22:38.726Z,27.77
2019-04-30T11:25:09.922Z,30.15
2019-04-30T11:27:40.714Z,35.88
2019-04-30T11:30:20.390Z,22.27
2019-04-30T11:32:40.123Z,27.70
2019-04-30T11:35:09.173Z,27.75
2019-04-30T11:37:39.426Z,30.85
2019-04-30T11:40:10.599Z,30.32
2019-04-30T11:42:39.358Z,30.80
2019-04-30T11:45:08.943Z,29.67
2019-04-30T11:47:39.732Z,31.02
2019-04-30T11:50:13.070Z,30.90
2019-04-30T11:52:41.835Z,33.53
2019-04-30T11:55:11.144Z,30.27
2019-04-30T11:57:40.211Z,35.17
2019-04-30T12:00:12.751Z,39.00
2019-04-30T12:02:41.759Z,34.15
2019-04-30T12:05:12.499Z,31.42
2019-04-30T12:07:55.359Z,33.48
2019-04-30T12:10:25.880Z,37.30
2019-04-30T12:12:54.668Z,31.10
2019-04-30T12:15:23.440Z,31.80
2019-04-30T12:17:52.302Z,37.55
2019-04-30T12:20:21.361Z,34.67
2019-04-30T12:22:50.221Z,35.28
2019-04-30T12:25:19.238Z,29.92
2019-04-30T12:27:48.866Z,30.72
2019-04-30T12:30:20.781Z,33.95
2019-04-30T12:32:49.723Z,35.13
2019-04-30T12:35:19.044Z,32.85
2019-04-30T12:37:50.840Z,36.55
2019-04-30T12:40:26.679Z,29.57
2019-04-30T12:42:49.180Z,33.25
2019-04-30T12:45:19.460Z,27.73
2019-04-30T12:47:50.011Z,34.03
2019-04-30T12:50:20.742Z,32.85
2019-04-30T12:53:00.230Z,32.13
2019-04-30T12:55:30.694Z,33.58
2019-04-30T12:58:01.646Z,36.60
2019-04-30T13:00:31.141Z,37.70
2019-04-30T13:03:00.009Z,40.00
2019-04-30T13:05:29.645Z,39.48
2019-04-30T13:08:00.112Z,35.17
2019-04-30T13:10:29.920Z,39.23
2019-04-30T13:12:59.541Z,32.25
2019-04-30T13:15:28.788Z,31.50
2019-04-30T13:17:58.577Z,44.50
2019-04-30T13:20:29.286Z,115.17
2019-04-30T13:22:58.904Z,36.90
2019-04-30T13:25:35.050Z,39.42
2019-04-30T13:27:59.995Z,32.65
2019-04-30T13:30:30.528Z,29.23
2019-04-30T13:33:06.809Z,28.67
2019-04-30T13:35:35.880Z,34.70
2019-04-30T13:38:06.656Z,33.20
2019-04-30T13:40:38.955Z,33.33
2019-04-30T13:43:09.516Z,30.77
2019-04-30T13:45:41.016Z,32.25
2019-04-30T13:48:09.923Z,29.18
2019-04-30T13:50:39.191Z,31.40
2019-04-30T13:53:08.868Z,32.80
2019-04-30T13:55:45.526Z,31.55
2019-04-30T13:58:08.392Z,31.48
2019-04-30T14:00:37.283Z,28.10
2019-04-30T14:03:10.564Z,30.97
2019-04-30T14:05:39.446Z,33.55
2019-04-30T14:08:09.913Z,32.15
2019-04-30T14:10:41.864Z,31.90
2019-04-30T14:13:10.639Z,36.33
2019-04-30T14:15:39.716Z,35.05
2019-04-30T14:18:11.985Z,34.25
2019-04-30T14:20:43.472Z,37.55
2019-04-30T14:23:59.831Z,33.98
2019-04-30T14:26:04.189Z,35.63
2019-04-30T14:28:39.119Z,33.00
2019-04-30T14:31:18.662Z,37.17
2019-04-30T14:33:45.798Z,40.83
2019-04-30T14:36:15.880Z,40.65
2019-04-30T14:38:46.253Z,37.38
2019-04-30T14:41:17.210Z,38.55
2019-04-30T14:43:50.495Z,37.48
2019-04-30T14:46:39.409Z,34.95
2019-04-30T14:49:33.656Z,35.83
2019-04-30T14:52:02.983Z,34.20
2019-04-30T14:54:36.215Z,35.25
2019-04-30T15:03:01.815Z,34.58
2019-04-30T15:05:39.170Z,36.20
2019-04-30T15:08:01.278Z,31.75
2019-04-30T15:10:30.116Z,36.13
2019-04-30T15:13:00.216Z,36.45
2019-04-30T15:15:30.956Z,42.40
2019-04-30T15:18:09.303Z,41.95
2019-04-30T15:20:39.762Z,37.45
2019-04-30T15:23:10.402Z,38.90
2019-04-30T15:25:42.697Z,35.73
2019-04-30T15:28:13.067Z,39.40
2019-04-30T15:30:45.697Z,36.13
2019-04-30T15:33:34.485Z,37.03
2019-04-30T15:36:09.748Z,43.75
2019-04-30T15:38:53.307Z,40.85
2019-04-30T15:41:22.186Z,44.30
2019-04-30T15:43:51.140Z,40.98
2019-04-30T15:46:40.749Z,43.20
2019-04-30T15:49:21.540Z,43.40
2019-04-30T15:51:46.900Z,44.53
2019-04-30T15:54:26.220Z,43.25
2019-04-30T15:56:50.878Z,31.82
2019-04-30T15:59:26.716Z,30.52
2019-04-30T16:02:01.565Z,41.33
2019-04-30T16:04:49.187Z,42.70
2019-04-30T16:07:20.525Z,42.98
2019-04-30T16:10:13.148Z,43.25
2019-04-30T16:12:50.939Z,47.38
2019-04-30T16:15:45.430Z,40.98
2019-04-30T16:18:15.600Z,51.37
2019-04-30T16:20:44.396Z,41.02
2019-04-30T16:23:15.316Z,43.70
2019-04-30T16:25:51.509Z,45.58
2019-04-30T16:28:20.412Z,43.85
2019-04-30T16:30:55.348Z,42.15
2019-04-30T16:33:25.054Z,41.45
2019-04-30T16:35:56.787Z,37.10
2019-04-30T16:38:28.996Z,42.93
2019-04-30T16:40:58.462Z,49.73
2019-04-30T16:43:29.801Z,43.28
2019-04-30T16:45:58.922Z,41.42
2019-04-30T16:48:29.836Z,50.05
2019-04-30T16:51:02.768Z,44.60
2019-04-30T16:53:31.591Z,42.08
2019-04-30T16:56:00.430Z,41.58
2019-04-30T16:58:30.835Z,43.33
2019-04-30T17:01:02.492Z,43.40
2019-04-30T17:03:52.771Z,41.48
2019-04-30T17:06:34.206Z,38.40
2019-04-30T17:09:07.638Z,41.80
2019-04-30T17:11:54.443Z,39.95
2019-04-30T17:14:24.766Z,43.60
2019-04-30T17:16:53.725Z,40.52
2019-04-30T17:19:25.552Z,37.30
2019-04-30T17:21:54.419Z,45.00
2019-04-30T17:24:23.457Z,41.40
2019-04-30T17:26:52.299Z,46.68
2019-04-30T17:29:22.126Z,39.70
2019-04-30T17:31:51.212Z,47.05
2019-04-30T17:34:20.125Z,44.50
2019-04-30T17:36:49.610Z,39.90
2019-04-30T17:39:20.539Z,43.58
2019-04-30T17:41:49.793Z,44.77
2019-04-30T17:44:18.800Z,38.35
2019-04-30T17:46:49.243Z,35.28
2019-04-30T17:49:18.938Z,42.60
2019-04-30T17:51:49.131Z,45.78
2019-04-30T17:54:18.096Z,38.00
2019-04-30T17:56:48.318Z,34.43
2019-04-30T17:59:17.137Z,39.10
2019-04-30T18:01:49.503Z,38.25
2019-04-30T18:04:18.664Z,44.58
2019-04-30T18:06:50.756Z,48.10
2019-04-30T18:09:19.760Z,47.33
2019-04-30T18:11:49.592Z,45.30
2019-04-30T18:14:18.801Z,49.93
2019-04-30T18:16:48.655Z,47.85
2019-04-30T18:19:19.321Z,47.83
2019-04-30T18:22:04.987Z,49.13
2019-04-30T18:24:39.357Z,47.90
2019-04-30T18:27:22.907Z,39.18
2019-04-30T18:29:51.743Z,40.33
2019-04-30T18:32:22.223Z,45.83
2019-04-30T18:34:51.074Z,47.00
2019-04-30T18:37:19.944Z,43.17
2019-04-30T18:39:48.715Z,40.98
2019-04-30T18:42:19.354Z,38.90
2019-04-30T18:44:48.051Z,36.13
2019-04-30T18:47:18.772Z,44.83
2019-04-30T18:49:49.364Z,42.20
2019-04-30T18:52:18.818Z,47.20
2019-04-30T18:54:49.418Z,40.52
2019-04-30T18:57:18.399Z,42.85
2019-04-30T18:59:47.282Z,42.85
2019-04-30T19:02:16.126Z,44.40
2019-04-30T19:04:44.941Z,45.83
2019-04-30T19:07:18.541Z,43.25
2019-04-30T19:09:51.960Z,44.08
2019-04-30T19:15:10.088Z,40.28
2019-04-30T19:17:52.333Z,41.20
2019-04-30T19:20:25.378Z,43.00
2019-04-30T19:22:54.139Z,54.70
2019-04-30T19:25:23.069Z,45.80
2019-04-30T19:27:51.928Z,44.55
2019-04-30T19:30:20.975Z,47.00
2019-04-30T19:32:49.780Z,47.60
2019-04-30T19:35:18.801Z,45.38
2019-04-30T19:37:48.872Z,48.90
2019-04-30T19:40:19.008Z,43.80
2019-04-30T19:42:50.259Z,48.98
2019-04-30T19:45:18.587Z,43.83
2019-04-30T19:47:50.095Z,48.70
2019-04-30T19:50:19.327Z,48.20
2019-04-30T19:52:48.212Z,49.25
2019-04-30T19:55:20.412Z,48.25
2019-04-30T19:57:48.439Z,43.17
2019-04-30T20:00:18.162Z,49.93
2019-04-30T20:02:48.636Z,45.60
2019-04-30T20:05:19.248Z,51.45
2019-04-30T20:07:49.312Z,92.57
2019-04-30T20:10:19.564Z,62.58
2019-04-30T20:12:49.779Z,48.23
2019-04-30T20:15:21.724Z,52.33
2019-04-30T20:17:49.880Z,48.90
2019-04-30T20:20:19.007Z,46.42
2019-04-30T20:22:47.847Z,53.63
2019-04-30T20:25:16.624Z,49.20
2019-04-30T20:27:45.485Z,55.15
2019-04-30T20:30:14.556Z,56.85
2019-04-30T20:32:43.386Z,58.83
2019-04-30T20:35:15.942Z,51.05
2019-04-30T20:38:03.764Z,54.50
2019-04-30T20:40:43.418Z,50.85
2019-04-30T20:43:04.847Z,60.75
2019-04-30T20:45:33.679Z,50.92
2019-04-30T20:48:02.456Z,74.45
2019-04-30T20:50:31.289Z,66.45
2019-04-30T20:53:00.200Z,59.05
2019-04-30T20:55:29.130Z,64.55
2019-04-30T20:57:59.479Z,57.23
2019-04-30T21:00:28.489Z,55.78
2019-04-30T21:02:57.276Z,74.27
2019-04-30T21:05:26.101Z,55.00
2019-04-30T21:07:54.904Z,59.55
2019-04-30T21:10:23.794Z,60.63
2019-04-30T21:12:52.588Z,59.58
2019-04-30T21:15:21.480Z,63.45
2019-04-30T21:17:50.530Z,68.33
2019-04-30T21:20:19.568Z,99.50
2019-04-30T21:22:49.438Z,74.40
2019-04-30T21:25:18.834Z,57.40
2019-04-30T21:27:50.025Z,56.90
2019-04-30T21:30:37.613Z,60.65
2019-04-30T21:33:09.559Z,65.25
2019-04-30T21:35:41.628Z,75.85
2019-04-30T21:38:10.505Z,73.33
2019-04-30T21:40:51.981Z,82.25
2019-04-30T21:43:20.905Z,67.92
2019-04-30T21:45:54.517Z,70.55
2019-04-30T21:48:23.006Z,63.52
2019-04-30T21:50:59.314Z,66.60
2019-04-30T21:53:29.613Z,67.15
2019-04-30T21:55:58.540Z,60.80
2019-04-30T21:58:29.201Z,77.67
2019-04-30T22:01:08.597Z,66.72
2019-04-30T22:03:39.449Z,64.03
2019-04-30T22:06:08.455Z,77.82
2019-04-30T22:08:44.429Z,93.42
2019-04-30T22:11:14.671Z,64.20
2019-04-30T22:13:44.088Z,59.45
2019-04-30T22:16:14.915Z,71.05
2019-04-30T22:18:45.246Z,57.40
2019-04-30T22:21:16.185Z,59.58
2019-04-30T22:23:46.533Z,61.83
2019-04-30T22:26:15.116Z,62.55
2019-04-30T22:28:45.761Z,61.95
2019-04-30T22:31:14.649Z,87.62
2019-04-30T22:33:43.526Z,81.80
2019-04-30T22:36:14.036Z,66.75
2019-04-30T22:38:44.515Z,64.85
2019-04-30T22:41:13.433Z,65.78
2019-04-30T22:43:42.272Z,66.15
2019-04-30T22:46:15.734Z,60.90
2019-04-30T22:51:13.189Z,65.90
2019-04-30T22:53:48.205Z,61.83
2019-04-30T22:56:19.640Z,63.40
2019-04-30T22:58:51.320Z,65.25
2019-04-30T23:01:37.198Z,62.93
2019-04-30T23:04:13.528Z,63.80
2019-04-30T23:06:49.003Z,61.95
2019-04-30T23:09:19.641Z,62.65
2019-04-30T23:11:49.693Z,65.35
2019-04-30T23:14:19.979Z,63.00
2019-04-30T23:16:50.068Z,62.98
2019-04-30T23:19:18.928Z,58.40
2019-04-30T23:21:47.742Z,59.35
2019-04-30T23:24:16.508Z,61.40
2019-04-30T23:26:45.515Z,60.85
2019-04-30T23:29:14.288Z,57.65
2019-04-30T23:31:43.055Z,65.50
2019-04-30T23:34:18.132Z,61.18
2019-04-30T23:36:43.342Z,59.65
2019-04-30T23:39:12.154Z,63.15
2019-04-30T23:41:40.930Z,60.50
2019-04-30T23:44:09.764Z,59.58
2019-04-30T23:46:38.605Z,61.37
2019-04-30T23:49:07.444Z,61.68
2019-04-30T23:51:36.292Z,63.87
2019-04-30T23:54:05.142Z,61.70
2019-04-30T23:56:34.009Z,58.98
2019-04-30T23:59:02.803Z,59.63
